Terminal Aerodrome Forecast
Issued by NWS

Home | Current Version | Previous Version | Text Only | Print | Product List | Glossary On
Versions: 1 2 3 4 5 6 7 8 9 10 11 12 13 14 15
000
FTUS42 TJSJ 021100 RRA
TAFIST
TAF
TIST 021144Z 0212/0312 07010KT P6SM VCSH SCT025 SCT050
      TEMPO 0212/0214 08015KT 5SM -SHRA SCT020 BKN040
     FM021400 09013G23KT P6SM VCSH SCT030 SCT040
     FM022300 09010KT P6SM FEW025
      AMD NOT SKED=

USA.gov is the U.S. government's official web portal to all federal, state and local government web resources and services.